createdAt,value
2017-07-26T00:02:18.336Z,13.98
2017-07-26T00:04:46.123Z,14.01
2017-07-26T00:07:13.828Z,14.03
2017-07-26T00:09:41.586Z,14.02
2017-07-26T00:12:09.269Z,13.90
2017-07-26T00:14:36.983Z,13.96
2017-07-26T00:17:04.740Z,13.80
2017-07-26T00:19:32.452Z,13.88
2017-07-26T00:22:00.160Z,13.90
2017-07-26T00:24:27.898Z,13.85
2017-07-26T00:26:58.382Z,13.85
2017-07-26T00:29:26.197Z,13.86
2017-07-26T00:34:33.927Z,14.03
2017-07-26T00:37:01.643Z,14.11
2017-07-26T00:39:29.344Z,14.08
2017-07-26T00:41:57.094Z,14.12
2017-07-26T00:44:24.847Z,14.16
2017-07-26T00:46:52.617Z,14.14
2017-07-26T00:49:20.318Z,14.10
2017-07-26T00:51:48.037Z,14.08
2017-07-26T00:54:15.917Z,14.05
2017-07-26T00:56:43.676Z,13.97
2017-07-26T00:59:11.368Z,13.95
2017-07-26T01:01:39.157Z,14.00
2017-07-26T01:04:06.853Z,13.93
2017-07-26T01:06:34.581Z,13.89
2017-07-26T01:09:02.405Z,13.76
2017-07-26T01:11:30.140Z,13.78
2017-07-26T01:13:57.829Z,13.73
2017-07-26T01:16:25.657Z,13.74
2017-07-26T01:18:53.343Z,13.68
2017-07-26T01:21:21.095Z,13.53
2017-07-26T01:23:48.909Z,13.49
2017-07-26T01:26:16.623Z,13.60
2017-07-26T01:28:44.383Z,13.68
2017-07-26T01:31:12.383Z,13.70
2017-07-26T01:33:40.085Z,13.66
2017-07-26T01:36:07.881Z,13.65
2017-07-26T01:38:35.561Z,13.72
2017-07-26T01:41:03.310Z,13.63
2017-07-26T01:43:31.091Z,13.59
2017-07-26T01:45:58.819Z,13.54
2017-07-26T01:48:26.532Z,13.54
2017-07-26T01:50:54.311Z,13.56
2017-07-26T01:53:22.087Z,13.60
2017-07-26T01:55:49.844Z,13.57
2017-07-26T01:58:17.567Z,13.47
2017-07-26T02:00:45.340Z,13.34
2017-07-26T02:03:13.042Z,13.38
2017-07-26T02:05:40.755Z,13.37
2017-07-26T02:08:08.625Z,13.30
2017-07-26T02:10:36.340Z,13.24
2017-07-26T02:13:04.108Z,13.09
2017-07-26T02:15:31.909Z,13.11
2017-07-26T02:17:59.600Z,13.11
2017-07-26T02:20:27.317Z,13.00
2017-07-26T02:22:55.058Z,13.10
2017-07-26T02:25:22.737Z,13.12
2017-07-26T02:27:50.468Z,13.13
2017-07-26T02:30:18.230Z,13.04
2017-07-26T02:32:45.936Z,12.98
2017-07-26T02:35:13.684Z,12.97
2017-07-26T02:37:41.469Z,12.90
2017-07-26T02:40:09.286Z,12.72
2017-07-26T02:42:37.084Z,12.75
2017-07-26T02:45:04.823Z,12.81
2017-07-26T02:47:32.596Z,12.87
2017-07-26T02:50:00.376Z,12.84
2017-07-26T02:52:28.184Z,12.86
2017-07-26T02:54:55.951Z,12.89
2017-07-26T02:57:23.725Z,12.90
2017-07-26T02:59:51.516Z,12.88
2017-07-26T03:02:19.208Z,12.98
2017-07-26T03:04:47.008Z,12.85
2017-07-26T03:07:14.737Z,12.85
2017-07-26T03:09:42.505Z,12.80
2017-07-26T03:12:10.237Z,12.66
2017-07-26T03:14:37.935Z,12.77
2017-07-26T03:17:05.727Z,12.72
2017-07-26T03:19:33.599Z,12.62
2017-07-26T03:22:01.387Z,12.65
2017-07-26T03:24:29.121Z,12.55
2017-07-26T03:26:56.827Z,12.51
2017-07-26T03:29:24.546Z,12.58
2017-07-26T03:31:52.226Z,12.69
2017-07-26T03:34:20.003Z,12.69
2017-07-26T03:36:47.710Z,12.59
2017-07-26T03:39:15.444Z,12.49
2017-07-26T03:41:43.144Z,12.59
2017-07-26T03:44:10.906Z,12.54
2017-07-26T03:46:38.616Z,12.53
2017-07-26T03:49:06.354Z,12.62
2017-07-26T03:51:34.138Z,12.69
2017-07-26T03:54:01.842Z,12.64
2017-07-26T03:56:29.556Z,12.64
2017-07-26T03:58:57.311Z,12.64
2017-07-26T04:01:25.041Z,12.57
2017-07-26T04:03:52.789Z,12.61
2017-07-26T04:06:20.508Z,12.51
2017-07-26T04:08:48.287Z,12.46
2017-07-26T04:11:15.998Z,12.54
2017-07-26T04:13:43.867Z,12.58
2017-07-26T04:16:11.558Z,12.64
2017-07-26T04:18:39.285Z,12.56
2017-07-26T04:21:06.973Z,12.64
2017-07-26T04:23:34.700Z,12.67
2017-07-26T04:26:02.373Z,12.48
2017-07-26T04:28:30.253Z,12.51
2017-07-26T04:30:57.968Z,12.64
2017-07-26T04:33:25.751Z,12.55
2017-07-26T04:35:53.476Z,12.57
2017-07-26T04:38:21.250Z,12.68
2017-07-26T04:40:49.041Z,12.76
2017-07-26T04:43:16.751Z,12.83
2017-07-26T04:45:44.452Z,12.78
2017-07-26T04:48:12.250Z,12.78
2017-07-26T04:50:39.945Z,12.75
2017-07-26T04:53:08.463Z,12.87
2017-07-26T04:55:36.208Z,12.81
2017-07-26T04:58:04.752Z,12.76
2017-07-26T05:00:32.484Z,12.79
2017-07-26T05:03:00.258Z,12.87
2017-07-26T05:05:27.970Z,12.93
2017-07-26T05:07:55.703Z,12.92
2017-07-26T05:10:23.476Z,13.01
2017-07-26T05:12:51.176Z,13.02
2017-07-26T05:15:18.963Z,12.98
2017-07-26T05:17:46.721Z,13.04
2017-07-26T05:20:14.445Z,13.03
2017-07-26T05:22:42.241Z,13.01
2017-07-26T05:25:09.971Z,12.99
2017-07-26T05:27:37.728Z,13.03
2017-07-26T05:30:05.431Z,12.97
2017-07-26T05:32:33.154Z,12.96
2017-07-26T05:35:00.927Z,13.04
2017-07-26T05:37:28.639Z,13.01
2017-07-26T05:39:56.432Z,12.94
2017-07-26T05:42:24.198Z,12.94
2017-07-26T05:44:51.901Z,12.94
2017-07-26T05:47:20.245Z,12.95
2017-07-26T05:49:47.996Z,12.90
2017-07-26T05:52:15.738Z,12.93
2017-07-26T05:54:43.453Z,12.86
2017-07-26T05:57:11.141Z,12.96
2017-07-26T05:59:38.866Z,12.99
2017-07-26T06:02:06.641Z,12.94
2017-07-26T06:04:34.343Z,12.93
2017-07-26T06:07:02.116Z,12.96
2017-07-26T06:09:29.811Z,12.89
2017-07-26T06:11:57.553Z,13.01
2017-07-26T06:14:25.284Z,12.96
2017-07-26T06:16:53.110Z,13.04
2017-07-26T06:19:20.801Z,13.06
2017-07-26T06:21:48.478Z,13.14
2017-07-26T06:24:16.291Z,13.10
2017-07-26T06:26:44.042Z,13.11
2017-07-26T06:29:11.774Z,13.13
2017-07-26T06:31:39.516Z,13.22
2017-07-26T06:34:07.352Z,13.19
2017-07-26T06:36:35.093Z,13.15
2017-07-26T06:39:02.860Z,13.23
2017-07-26T06:41:30.569Z,13.37
2017-07-26T06:43:58.371Z,13.45
2017-07-26T06:46:27.360Z,13.68
2017-07-26T06:48:55.084Z,14.01
2017-07-26T06:51:22.781Z,14.20
2017-07-26T06:53:50.567Z,14.03
2017-07-26T06:56:18.280Z,14.05
2017-07-26T06:58:46.050Z,14.15
2017-07-26T07:01:13.845Z,14.15
2017-07-26T07:03:41.594Z,13.71
2017-07-26T07:06:09.401Z,13.86
2017-07-26T07:08:37.213Z,13.96
2017-07-26T07:11:04.933Z,14.24
2017-07-26T07:13:32.805Z,14.37
2017-07-26T07:16:00.511Z,14.42
2017-07-26T07:18:28.221Z,14.25
2017-07-26T07:20:56.063Z,14.39
2017-07-26T07:23:23.860Z,14.37
2017-07-26T07:25:51.585Z,14.36
2017-07-26T07:28:19.335Z,14.43
2017-07-26T07:30:47.046Z,14.49
2017-07-26T07:33:14.800Z,14.81
2017-07-26T07:35:42.589Z,14.97
2017-07-26T07:38:10.339Z,15.16
2017-07-26T07:40:38.117Z,15.28
2017-07-26T07:43:05.856Z,15.35
2017-07-26T07:45:33.681Z,15.29
2017-07-26T07:48:01.430Z,14.92
2017-07-26T07:50:29.212Z,14.84
2017-07-26T07:52:56.913Z,14.78
2017-07-26T07:55:24.618Z,14.53
2017-07-26T07:57:52.380Z,14.62
2017-07-26T08:00:20.173Z,14.56
2017-07-26T08:02:47.894Z,14.69
2017-07-26T08:05:15.693Z,14.46
2017-07-26T08:07:44.064Z,14.47
2017-07-26T08:10:11.777Z,14.48
2017-07-26T08:12:39.533Z,14.42
2017-07-26T08:15:07.278Z,14.08
2017-07-26T08:17:35.940Z,14.02
2017-07-26T08:20:03.783Z,14.03
2017-07-26T08:22:31.489Z,14.12
2017-07-26T08:24:59.326Z,14.04
2017-07-26T08:27:27.123Z,13.92
2017-07-26T08:29:54.836Z,13.91
2017-07-26T08:32:22.591Z,13.90
2017-07-26T08:34:50.373Z,14.00
2017-07-26T08:37:18.147Z,14.16
2017-07-26T08:39:45.942Z,14.04
2017-07-26T08:42:13.715Z,14.06
2017-07-26T08:44:41.476Z,14.18
2017-07-26T08:47:09.958Z,14.50
2017-07-26T08:49:37.792Z,14.77
2017-07-26T08:52:05.524Z,14.90
2017-07-26T08:54:33.222Z,15.13
2017-07-26T08:57:01.012Z,15.10
2017-07-26T08:59:28.718Z,15.08
2017-07-26T09:01:56.464Z,15.48
2017-07-26T09:04:24.167Z,15.78
2017-07-26T09:06:51.980Z,15.71
2017-07-26T09:09:20.305Z,15.66
2017-07-26T09:11:48.017Z,15.65
2017-07-26T09:14:15.773Z,15.45
2017-07-26T09:16:43.491Z,15.36
2017-07-26T09:19:11.226Z,15.19
2017-07-26T09:21:38.932Z,15.39
2017-07-26T09:24:06.738Z,15.46
2017-07-26T09:26:34.674Z,15.72
2017-07-26T09:29:02.451Z,15.93
2017-07-26T09:31:30.212Z,15.79
2017-07-26T09:33:58.006Z,15.67
2017-07-26T09:36:26.049Z,15.93
2017-07-26T09:38:53.860Z,16.21
2017-07-26T09:41:22.718Z,15.97
2017-07-26T09:43:50.448Z,15.99
2017-07-26T09:46:18.174Z,16.06
2017-07-26T09:48:46.892Z,16.25
2017-07-26T09:51:15.054Z,16.20
2017-07-26T09:53:43.163Z,15.94
2017-07-26T09:56:10.916Z,15.86
2017-07-26T09:58:38.748Z,15.89
2017-07-26T10:01:06.544Z,15.85
2017-07-26T10:03:34.313Z,15.75
2017-07-26T10:06:03.147Z,15.95
2017-07-26T10:08:32.055Z,15.84
2017-07-26T10:10:59.854Z,16.24
2017-07-26T10:13:27.568Z,16.18
2017-07-26T10:15:55.332Z,16.20
2017-07-26T10:18:23.098Z,16.26
2017-07-26T10:20:50.849Z,16.20
2017-07-26T10:23:18.646Z,15.99
2017-07-26T10:25:46.716Z,15.90
2017-07-26T10:28:14.713Z,15.94
2017-07-26T10:30:42.557Z,15.78
2017-07-26T10:33:10.281Z,15.80
2017-07-26T10:35:37.988Z,15.92
2017-07-26T10:38:05.756Z,16.07
2017-07-26T10:40:33.590Z,16.27
2017-07-26T10:43:01.534Z,16.25
2017-07-26T10:45:29.553Z,16.37
2017-07-26T10:47:57.429Z,15.99
2017-07-26T10:50:25.178Z,16.13
2017-07-26T10:52:52.867Z,16.19
2017-07-26T10:55:20.566Z,16.21
2017-07-26T10:57:48.366Z,16.33
2017-07-26T11:00:16.081Z,15.99
2017-07-26T11:02:43.870Z,16.19
2017-07-26T11:05:11.631Z,16.29
2017-07-26T11:07:39.539Z,16.53
2017-07-26T11:10:07.528Z,16.50
2017-07-26T11:12:35.249Z,16.44
2017-07-26T11:15:03.048Z,16.26
2017-07-26T11:17:31.656Z,16.51
2017-07-26T11:19:59.358Z,16.47
2017-07-26T11:22:27.247Z,16.41
2017-07-26T11:24:55.031Z,16.13
2017-07-26T11:27:22.810Z,16.32
2017-07-26T11:29:51.574Z,16.08
2017-07-26T11:32:19.378Z,16.23
2017-07-26T11:34:47.097Z,16.19
2017-07-26T11:37:15.936Z,16.14
2017-07-26T11:39:43.736Z,15.87
2017-07-26T11:42:11.454Z,15.73
2017-07-26T11:44:39.195Z,16.18
2017-07-26T11:47:07.640Z,16.09
2017-07-26T11:49:36.434Z,15.82
2017-07-26T11:52:04.246Z,15.89
2017-07-26T11:54:32.065Z,16.07
2017-07-26T11:56:59.817Z,16.20
2017-07-26T11:59:27.514Z,16.29
2017-07-26T12:01:55.334Z,16.02
2017-07-26T12:04:23.160Z,16.20
2017-07-26T12:06:51.431Z,16.50
2017-07-26T12:09:19.573Z,16.37
2017-07-26T12:11:47.384Z,16.23
2017-07-26T12:14:15.107Z,16.59
2017-07-26T12:16:43.012Z,16.46
2017-07-26T12:19:10.746Z,16.14
2017-07-26T12:21:38.457Z,16.40
2017-07-26T12:24:06.213Z,16.71
2017-07-26T12:26:33.992Z,16.81
2017-07-26T12:29:01.866Z,16.89
2017-07-26T12:31:30.491Z,16.96
2017-07-26T12:33:58.452Z,16.92
2017-07-26T12:36:26.351Z,17.13
2017-07-26T12:38:54.083Z,16.78
2017-07-26T12:41:21.910Z,16.59
2017-07-26T12:43:49.755Z,16.84
2017-07-26T12:46:17.478Z,16.42
2017-07-26T12:48:46.316Z,16.40
2017-07-26T12:51:14.905Z,16.36
2017-07-26T12:53:43.859Z,16.14
2017-07-26T12:56:11.798Z,15.97
2017-07-26T12:58:39.716Z,16.07
2017-07-26T13:01:07.455Z,15.93
2017-07-26T13:03:35.285Z,15.77
2017-07-26T13:06:03.004Z,15.69
2017-07-26T13:08:30.757Z,15.69
2017-07-26T13:10:58.445Z,15.72
2017-07-26T13:13:26.610Z,15.62
2017-07-26T13:15:54.574Z,15.68
2017-07-26T13:18:22.741Z,15.79
2017-07-26T13:20:50.562Z,15.46
2017-07-26T13:23:18.403Z,15.56
2017-07-26T13:25:46.162Z,15.25
2017-07-26T13:28:13.899Z,15.23
2017-07-26T13:30:41.658Z,15.11
2017-07-26T13:33:09.408Z,15.24
2017-07-26T13:35:38.412Z,15.03
2017-07-26T13:38:07.314Z,14.98
2017-07-26T13:40:35.076Z,14.88
2017-07-26T13:43:02.788Z,14.88
2017-07-26T13:45:30.561Z,14.83
2017-07-26T13:47:58.293Z,14.78
2017-07-26T13:50:26.096Z,14.79
2017-07-26T13:52:54.874Z,14.86
2017-07-26T13:55:22.589Z,14.99
2017-07-26T13:57:50.382Z,14.93
2017-07-26T14:00:18.147Z,15.07
2017-07-26T14:02:45.864Z,15.07
2017-07-26T14:05:13.823Z,15.12
2017-07-26T14:07:41.586Z,14.84
2017-07-26T14:10:09.851Z,14.60
2017-07-26T14:12:37.686Z,14.66
2017-07-26T14:15:05.545Z,14.88
2017-07-26T14:17:33.415Z,14.93
2017-07-26T14:20:01.222Z,15.02
2017-07-26T14:22:29.078Z,15.08
2017-07-26T14:24:56.841Z,15.33
2017-07-26T14:27:24.700Z,15.38
2017-07-26T14:29:52.601Z,15.17
2017-07-26T14:32:20.427Z,15.30
2017-07-26T14:34:48.220Z,15.40
2017-07-26T14:37:16.047Z,14.97
2017-07-26T14:39:43.794Z,15.02
2017-07-26T14:42:12.735Z,14.83
2017-07-26T14:44:40.663Z,14.97
2017-07-26T14:47:08.562Z,14.97
2017-07-26T14:49:36.335Z,14.82
2017-07-26T14:52:04.152Z,14.78
2017-07-26T14:54:31.882Z,14.77
2017-07-26T14:56:59.610Z,14.62
2017-07-26T14:59:27.594Z,14.64
2017-07-26T15:01:55.294Z,14.65
2017-07-26T15:04:23.160Z,14.82
2017-07-26T15:06:50.889Z,14.85
2017-07-26T15:09:21.110Z,14.61
2017-07-26T15:11:48.872Z,14.54
2017-07-26T15:14:16.619Z,14.56
2017-07-26T15:16:44.824Z,14.60
2017-07-26T15:19:12.602Z,14.52
2017-07-26T15:21:40.332Z,14.48
2017-07-26T15:24:08.110Z,14.38
2017-07-26T15:26:35.982Z,14.46
2017-07-26T15:29:04.224Z,14.41
2017-07-26T15:31:32.001Z,14.52
2017-07-26T15:33:59.773Z,14.52
2017-07-26T15:36:27.590Z,14.68
2017-07-26T15:38:55.309Z,14.70
2017-07-26T15:41:23.025Z,14.54
2017-07-26T15:43:50.780Z,14.46
2017-07-26T15:46:18.614Z,14.45
2017-07-26T15:48:46.364Z,14.22
2017-07-26T15:51:14.201Z,14.19
2017-07-26T15:53:41.925Z,14.31
2017-07-26T15:56:09.701Z,14.32
2017-07-26T15:58:37.473Z,14.32
2017-07-26T16:01:05.207Z,14.27
2017-07-26T16:03:33.166Z,14.20
2017-07-26T16:06:03.763Z,13.94
2017-07-26T16:08:31.598Z,14.15
2017-07-26T16:10:59.879Z,14.27
2017-07-26T16:13:27.631Z,14.26
2017-07-26T16:15:55.505Z,13.95
2017-07-26T16:18:23.219Z,13.98
2017-07-26T16:20:50.967Z,13.80
2017-07-26T16:23:18.783Z,14.09
2017-07-26T16:25:46.535Z,13.89
2017-07-26T16:28:15.948Z,14.03
2017-07-26T16:30:43.722Z,13.86
2017-07-26T16:33:11.620Z,14.01
2017-07-26T16:35:39.450Z,13.75
2017-07-26T16:38:07.167Z,13.86
2017-07-26T16:40:35.036Z,13.72
2017-07-26T16:43:02.859Z,13.55
2017-07-26T16:45:30.748Z,13.65
2017-07-26T16:47:59.760Z,13.71
2017-07-26T16:50:27.495Z,13.46
2017-07-26T16:52:55.303Z,13.52
2017-07-26T16:55:23.065Z,13.53
2017-07-26T16:57:50.851Z,13.58
2017-07-26T17:00:18.840Z,13.51
2017-07-26T17:02:46.669Z,13.67
2017-07-26T17:05:14.592Z,13.62
2017-07-26T17:07:42.310Z,13.58
2017-07-26T17:10:10.174Z,13.69
2017-07-26T17:12:38.035Z,13.64
2017-07-26T17:15:05.824Z,13.45
2017-07-26T17:17:34.123Z,13.33
2017-07-26T17:20:01.926Z,13.29
2017-07-26T17:22:29.702Z,13.51
2017-07-26T17:24:57.492Z,13.40
2017-07-26T17:27:25.467Z,13.36
2017-07-26T17:29:53.330Z,13.57
2017-07-26T17:32:21.156Z,13.34
2017-07-26T17:34:48.955Z,13.29
2017-07-26T17:37:16.806Z,13.30
2017-07-26T17:39:44.721Z,13.17
2017-07-26T17:42:12.573Z,13.18
2017-07-26T17:44:41.420Z,13.17
2017-07-26T17:47:09.270Z,13.33
2017-07-26T17:49:39.121Z,13.23
2017-07-26T17:52:09.181Z,13.28
2017-07-26T17:54:37.215Z,13.23
2017-07-26T17:57:05.273Z,13.33
2017-07-26T17:59:33.254Z,13.26
2017-07-26T18:02:01.344Z,13.28
2017-07-26T18:04:29.145Z,13.28
2017-07-26T18:06:57.964Z,13.29
2017-07-26T18:09:25.860Z,13.18
2017-07-26T18:11:53.997Z,13.11
2017-07-26T18:14:21.899Z,13.12
2017-07-26T18:16:49.744Z,13.21
2017-07-26T18:19:17.636Z,13.16
2017-07-26T18:21:45.546Z,13.15
2017-07-26T18:24:13.507Z,12.90
2017-07-26T18:26:41.459Z,13.09
2017-07-26T18:29:09.574Z,13.01
2017-07-26T18:31:37.657Z,12.88
2017-07-26T18:34:06.302Z,13.07
2017-07-26T18:36:34.555Z,13.04
2017-07-26T18:39:02.509Z,13.07
2017-07-26T18:41:31.893Z,13.11
2017-07-26T18:43:59.970Z,13.13
2017-07-26T18:46:27.886Z,13.08
2017-07-26T18:48:55.686Z,13.22
2017-07-26T18:51:23.553Z,13.08
2017-07-26T18:53:51.461Z,13.05
2017-07-26T18:56:19.470Z,13.05
2017-07-26T18:58:48.336Z,13.09
2017-07-26T19:01:16.177Z,13.03
2017-07-26T19:03:43.995Z,12.99
2017-07-26T19:06:11.813Z,13.04
2017-07-26T19:08:39.757Z,13.12
2017-07-26T19:11:09.159Z,13.13
2017-07-26T19:13:38.452Z,13.16
2017-07-26T19:16:07.064Z,13.17
2017-07-26T19:18:35.188Z,13.13
2017-07-26T19:21:03.319Z,13.10
2017-07-26T19:23:31.613Z,13.20
2017-07-26T19:25:59.585Z,13.18
2017-07-26T19:28:27.614Z,13.11
2017-07-26T19:30:55.675Z,13.05
2017-07-26T19:33:23.682Z,13.06
2017-07-26T19:35:52.594Z,13.03
2017-07-26T19:38:21.519Z,13.02
2017-07-26T19:40:49.353Z,13.06
2017-07-26T19:43:17.176Z,13.01
2017-07-26T19:45:44.997Z,13.11
2017-07-26T19:48:12.977Z,13.11
2017-07-26T19:50:40.781Z,13.01
2017-07-26T19:53:08.897Z,12.99
2017-07-26T19:55:37.000Z,13.05
2017-07-26T19:58:05.106Z,12.98
2017-07-26T20:00:33.252Z,12.99
2017-07-26T20:03:01.048Z,12.97
2017-07-26T20:05:28.959Z,12.93
2017-07-26T20:07:56.776Z,12.94
2017-07-26T20:10:24.688Z,12.98
2017-07-26T20:12:53.722Z,12.92
2017-07-26T20:15:21.999Z,12.89
2017-07-26T20:17:49.886Z,13.08
2017-07-26T20:20:17.675Z,12.96
2017-07-26T20:22:45.634Z,12.92
2017-07-26T20:25:13.456Z,12.96
2017-07-26T20:27:41.328Z,12.86
2017-07-26T20:30:09.081Z,12.99
2017-07-26T20:32:36.840Z,12.87
2017-07-26T20:35:04.652Z,12.91
2017-07-26T20:37:33.198Z,12.98
2017-07-26T20:40:00.904Z,12.92
2017-07-26T20:42:28.758Z,12.92
2017-07-26T20:44:56.553Z,12.92
2017-07-26T20:47:24.301Z,12.98
2017-07-26T20:49:52.284Z,12.98
2017-07-26T20:52:20.018Z,12.97
2017-07-26T20:54:48.865Z,12.98
2017-07-26T20:57:16.788Z,12.96
2017-07-26T20:59:44.642Z,12.95
2017-07-26T21:02:12.444Z,12.84
2017-07-26T21:04:40.206Z,12.88
2017-07-26T21:07:07.963Z,12.95
2017-07-26T21:09:35.798Z,12.81
2017-07-26T21:12:03.641Z,12.76
2017-07-26T21:14:31.448Z,12.84
2017-07-26T21:16:59.238Z,12.78
2017-07-26T21:19:26.998Z,12.83
2017-07-26T21:21:54.665Z,12.84
2017-07-26T21:24:22.439Z,12.90
2017-07-26T21:26:50.193Z,12.80
2017-07-26T21:29:17.926Z,12.77
2017-07-26T21:31:45.672Z,12.79
2017-07-26T21:34:13.490Z,12.80
2017-07-26T21:36:41.226Z,12.75
2017-07-26T21:39:09.973Z,12.78
2017-07-26T21:41:37.720Z,12.71
2017-07-26T21:44:05.445Z,12.85
2017-07-26T21:46:33.211Z,12.90
2017-07-26T21:49:01.295Z,12.90
2017-07-26T21:51:29.136Z,12.85
2017-07-26T21:53:56.858Z,12.75
2017-07-26T21:56:24.641Z,12.68
2017-07-26T21:58:52.503Z,12.68
2017-07-26T22:01:20.302Z,12.75
2017-07-26T22:03:49.106Z,12.70
2017-07-26T22:06:16.803Z,12.66
2017-07-26T22:08:44.573Z,12.73
2017-07-26T22:11:12.369Z,12.92
2017-07-26T22:13:40.185Z,12.90
2017-07-26T22:16:07.925Z,12.92
2017-07-26T22:18:35.886Z,12.81
2017-07-26T22:21:04.597Z,12.75
2017-07-26T22:23:32.481Z,12.71
2017-07-26T22:26:00.255Z,12.80
2017-07-26T22:28:28.006Z,12.81
2017-07-26T22:30:55.872Z,12.69
2017-07-26T22:33:23.684Z,12.59
2017-07-26T22:35:52.696Z,12.65
2017-07-26T22:38:20.900Z,12.76
2017-07-26T22:40:49.005Z,12.77
2017-07-26T22:43:16.714Z,12.72
2017-07-26T22:45:44.404Z,12.68
2017-07-26T22:48:12.223Z,12.74
2017-07-26T22:50:39.948Z,12.63
2017-07-26T22:53:07.742Z,12.70
2017-07-26T22:55:35.482Z,12.73
2017-07-26T22:58:03.315Z,12.66
2017-07-26T23:00:32.174Z,12.57
2017-07-26T23:03:00.066Z,12.61
2017-07-26T23:05:28.029Z,12.68
2017-07-26T23:07:55.841Z,12.69
2017-07-26T23:10:23.721Z,12.67
2017-07-26T23:12:51.519Z,12.67
2017-07-26T23:15:19.288Z,12.71
2017-07-26T23:17:47.043Z,12.74
2017-07-26T23:20:14.833Z,12.72
2017-07-26T23:22:42.606Z,12.67
2017-07-26T23:25:10.342Z,12.69
2017-07-26T23:27:38.045Z,12.69
2017-07-26T23:30:05.859Z,12.78
2017-07-26T23:32:33.637Z,12.76
2017-07-26T23:35:01.383Z,12.68
2017-07-26T23:37:29.160Z,12.66
2017-07-26T23:39:56.835Z,12.73
2017-07-26T23:42:24.574Z,12.77
2017-07-26T23:44:52.325Z,12.79
2017-07-26T23:47:20.180Z,13.06
2017-07-26T23:49:47.966Z,12.93
2017-07-26T23:52:15.807Z,12.95
2017-07-26T23:54:43.674Z,12.98
2017-07-26T23:57:11.994Z,12.93
2017-07-26T23:59:39.997Z,12.84
